Time;durP1;ratioP1;P1;durP2;ratioP2;P2;SDS_P1;SDS_P2;PMS_P1;PMS_P2;Temp;Humidity;BMP_temperature;BMP_pressure;BME280_temperature;BME280_humidity;BME280_pressure;Samples;Min_cycle;Max_cycle;Signal;HPM_P1;HPM_P2
2021/01/29 00:01:59;;;;;;;1.25;1.25;;;-0.70;99.90;;;;;;5089870;28;20165;-68
2021/01/29 00:04:25;;;;;;;0.43;0.43;;;-0.60;99.90;;;;;;5090347;28;20194;-69
2021/01/29 00:06:51;;;;;;;0.30;0.30;;;-0.60;99.90;;;;;;5090389;28;20170;-68
2021/01/29 00:09:19;;;;;;;0.88;0.88;;;-0.70;99.90;;;;;;5090495;28;20214;-68
2021/01/29 00:11:46;;;;;;;0.30;0.30;;;-0.70;99.90;;;;;;5089014;28;20190;-68
2021/01/29 00:14:12;;;;;;;0.10;0.10;;;-0.70;99.90;;;;;;5090361;28;20167;-68
2021/01/29 00:16:38;;;;;;;0.32;0.32;;;-0.70;99.90;;;;;;5090381;28;20176;-68
2021/01/29 00:19:04;;;;;;;0.85;0.85;;;-0.70;99.90;;;;;;5088806;28;20196;-68
2021/01/29 00:21:30;;;;;;;0.40;0.40;;;-0.60;99.90;;;;;;5090113;28;20191;-68
2021/01/29 00:23:56;;;;;;;0.77;0.77;;;-0.70;99.90;;;;;;5090054;28;20194;-68
2021/01/29 00:26:21;;;;;;;0.20;0.20;;;-0.70;99.90;;;;;;5090137;28;20162;-68
2021/01/29 00:28:47;;;;;;;0.73;0.70;;;-0.80;99.90;;;;;;5089933;28;20203;-68
2021/01/29 00:31:13;;;;;;;1.58;1.48;;;-0.80;99.90;;;;;;5090025;28;20171;-69
2021/01/29 00:33:39;;;;;;;0.90;0.90;;;-0.80;99.90;;;;;;5089862;28;20168;-68
2021/01/29 00:36:05;;;;;;;1.75;1.48;;;-0.80;99.90;;;;;;5089897;28;20160;-68
2021/01/29 00:38:31;;;;;;;1.85;1.73;;;-0.70;99.90;;;;;;5089825;28;20214;-68
2021/01/29 00:40:58;;;;;;;0.35;0.35;;;-0.70;99.90;;;;;;5088513;28;20200;-68
2021/01/29 00:43:24;;;;;;;0.35;0.28;;;-0.70;99.90;;;;;;5087991;28;20219;-68
2021/01/29 00:45:50;;;;;;;0.20;0.20;;;-0.70;99.90;;;;;;5087489;28;20262;-68
2021/01/29 00:48:17;;;;;;;0.47;0.47;;;-0.70;99.90;;;;;;5089584;28;20164;-68
2021/01/29 00:50:43;;;;;;;0.13;0.13;;;-0.80;99.90;;;;;;5089580;28;20230;-68
2021/01/29 00:53:10;;;;;;;0.47;0.47;;;-0.90;99.90;;;;;;5088336;28;20239;-68
2021/01/29 00:55:36;;;;;;;1.20;1.10;;;-0.80;99.90;;;;;;5088164;28;20628;-68
2021/01/29 00:58:03;;;;;;;0.73;0.73;;;-0.80;99.90;;;;;;5089531;28;20172;-68
2021/01/29 01:00:29;;;;;;;0.63;0.63;;;-0.90;99.90;;;;;;5087902;28;20208;-68
2021/01/29 01:02:55;;;;;;;1.10;1.10;;;-0.70;99.90;;;;;;5089381;28;20164;-68
2021/01/29 01:05:23;;;;;;;0.38;0.38;;;-0.70;99.90;;;;;;5087888;28;20179;-68
2021/01/29 01:07:49;;;;;;;1.85;0.98;;;-0.70;99.90;;;;;;5089385;28;20206;-68
2021/01/29 01:10:16;;;;;;;0.10;0.10;;;-0.70;99.90;;;;;;5089384;28;20683;-68
2021/01/29 01:12:42;;;;;;;0.32;0.32;;;-0.70;99.90;;;;;;5088773;28;20177;-68
2021/01/29 01:15:15;;;;;;;1.42;1.40;;;-0.70;99.90;;;;;;5089094;28;20164;-68
2021/01/29 01:17:42;;;;;;;0.20;0.20;;;-0.70;99.90;;;;;;5089030;28;20161;-68
2021/01/29 01:20:11;;;;;;;0.50;0.50;;;-0.70;99.90;;;;;;5087638;28;20267;-68
2021/01/29 01:22:37;;;;;;;0.40;0.40;;;-0.70;99.90;;;;;;5089056;28;20152;-68
2021/01/29 01:25:04;;;;;;;0.85;0.85;;;-0.70;99.90;;;;;;5089080;28;20271;-68
2021/01/29 01:27:30;;;;;;;0.17;0.17;;;-0.70;99.90;;;;;;5088740;28;20190;-68
2021/01/29 01:29:56;;;;;;;0.28;0.28;;;-0.60;99.90;;;;;;5087593;28;20191;-68
2021/01/29 01:32:22;;;;;;;2.85;2.65;;;-0.60;99.90;;;;;;5087555;28;20175;-68
2021/01/29 01:34:48;;;;;;;0.35;0.35;;;-0.60;99.90;;;;;;5088897;28;20190;-68
2021/01/29 01:37:13;;;;;;;0.63;0.63;;;-0.50;99.90;;;;;;5088786;28;20157;-68
2021/01/29 01:39:39;;;;;;;1.05;0.77;;;-0.60;99.90;;;;;;5087401;28;20188;-68
2021/01/29 01:42:05;;;;;;;0.30;0.30;;;-0.70;99.90;;;;;;5088423;28;20219;-68
2021/01/29 01:44:40;;;;;;;0.10;0.10;;;-0.70;99.90;;;;;;5088587;28;20285;-68
2021/01/29 01:47:21;;;;;;;0.77;0.77;;;-0.70;99.90;;;;;;5088771;28;20148;-68
2021/01/29 01:49:51;;;;;;;0.17;0.17;;;-0.70;99.90;;;;;;5088576;28;20188;-68
2021/01/29 01:52:25;;;;;;;1.55;1.55;;;-0.60;99.90;;;;;;5087316;28;20537;-68
2021/01/29 01:54:59;;;;;;;1.45;1.45;;;-0.60;99.90;;;;;;5088777;28;20163;-69
2021/01/29 01:57:28;;;;;;;0.22;0.22;;;-0.60;99.90;;;;;;5088700;28;20234;-68
2021/01/29 02:00:00;;;;;;;0.13;0.13;;;-0.70;99.90;;;;;;5088435;28;20226;-68
2021/01/29 02:02:31;;;;;;;1.20;1.15;;;-0.50;99.90;;;;;;5088462;28;20176;-68
2021/01/29 02:05:01;;;;;;;0.10;0.10;;;-0.50;99.90;;;;;;5088285;28;20198;-68
2021/01/29 02:07:31;;;;;;;0.10;0.10;;;-0.50;99.90;;;;;;5088334;28;20152;-68
2021/01/29 02:10:01;;;;;;;1.05;1.05;;;-0.60;99.90;;;;;;5088342;28;20191;-68
2021/01/29 02:12:27;;;;;;;0.57;0.57;;;-0.50;99.90;;;;;;5087027;28;20156;-68
2021/01/29 02:14:53;;;;;;;0.25;0.25;;;-0.60;99.90;;;;;;5088443;28;20643;-68
2021/01/29 02:17:49;;;;;;;0.50;0.47;;;-0.70;99.90;;;;;;5088337;28;20159;-68
2021/01/29 02:20:39;;;;;;;0.20;0.20;;;-0.50;99.90;;;;;;5088249;28;20204;-68
2021/01/29 02:23:29;;;;;;;0.10;0.10;;;-0.60;99.90;;;;;;5088519;28;20200;-69
2021/01/29 02:26:19;;;;;;;0.25;0.25;;;-0.70;99.90;;;;;;5092472;28;20156;-68
2021/01/29 02:29:23;;;;;;;0.55;0.55;;;-0.40;99.90;;;;;;5092241;28;20186;-68
2021/01/29 02:32:16;;;;;;;1.25;1.08;;;-0.10;99.90;;;;;;5092472;28;20156;-68
2021/01/29 02:35:26;;;;;;;1.83;1.75;;;-0.20;99.90;;;;;;5092268;28;20167;-68
2021/01/29 02:38:30;;;;;;;0.10;0.10;;;-0.30;99.90;;;;;;5090720;28;20206;-68
2021/01/29 02:41:16;;;;;;;0.40;0.40;;;-0.60;99.90;;;;;;5090855;28;20201;-68
2021/01/29 02:44:08;;;;;;;0.50;0.50;;;-0.70;99.90;;;;;;5091644;28;20262;-68
2021/01/29 02:46:53;;;;;;;1.00;0.60;;;-0.60;99.90;;;;;;5090614;28;20183;-68
2021/01/29 02:49:40;;;;;;;1.05;1.05;;;-0.70;99.90;;;;;;5090756;28;20172;-68
2021/01/29 02:52:28;;;;;;;0.22;0.22;;;-0.80;99.90;;;;;;5090738;28;20210;-68
2021/01/29 02:55:19;;;;;;;0.10;0.10;;;-0.70;99.90;;;;;;5091726;28;20179;-68
2021/01/29 02:57:57;;;;;;;4.57;1.42;;;-0.60;99.90;;;;;;5091925;28;20156;-68
2021/01/29 03:00:50;;;;;;;0.10;0.10;;;-0.70;99.90;;;;;;5091594;28;20194;-68
2021/01/29 03:03:55;;;;;;;1.23;1.23;;;-0.70;99.90;;;;;;5090571;28;20196;-68
2021/01/29 03:06:35;;;;;;;1.45;1.45;;;-0.60;99.90;;;;;;5090722;28;20191;-68
2021/01/29 03:09:40;;;;;;;0.75;0.75;;;-0.70;99.90;;;;;;5091462;28;20159;-68
2021/01/29 03:12:39;;;;;;;0.30;0.30;;;-0.80;99.90;;;;;;5091504;28;20203;-68
2021/01/29 03:15:08;;;;;;;0.10;0.10;;;-0.80;99.90;;;;;;5091329;28;20156;-68
2021/01/29 03:18:01;;;;;;;0.85;0.80;;;-0.80;99.90;;;;;;5091467;28;20163;-68
2021/01/29 03:20:43;;;;;;;0.35;0.35;;;-0.80;99.90;;;;;;5091189;28;20192;-68
2021/01/29 03:23:23;;;;;;;0.95;0.95;;;-0.70;99.90;;;;;;5091325;28;20213;-68
2021/01/29 03:25:59;;;;;;;1.75;1.60;;;-0.80;99.90;;;;;;5091146;28;20167;-68
2021/01/29 03:28:31;;;;;;;0.45;0.45;;;-0.80;99.90;;;;;;5091228;28;20182;-68
2021/01/29 03:30:59;;;;;;;0.10;0.10;;;-0.90;99.90;;;;;;5091084;28;20188;-68
2021/01/29 03:33:28;;;;;;;0.10;0.10;;;-1.00;99.90;;;;;;5091105;28;20160;-69
2021/01/29 03:36:06;;;;;;;1.02;1.02;;;-1.00;99.90;;;;;;5091057;28;20156;-68
2021/01/29 03:38:45;;;;;;;0.30;0.30;;;-0.90;99.90;;;;;;5089740;28;20187;-67
2021/01/29 03:41:27;;;;;;;0.10;0.10;;;-0.90;99.90;;;;;;5090572;28;20225;-69
2021/01/29 03:43:53;;;;;;;0.25;0.25;;;-0.90;99.90;;;;;;5090730;28;20184;-69
2021/01/29 03:46:31;;;;;;;0.10;0.10;;;-1.00;99.90;;;;;;5090582;28;20636;-69
2021/01/29 03:49:09;;;;;;;0.47;0.47;;;-1.20;99.90;;;;;;5090651;28;20608;-70
2021/01/29 03:51:54;;;;;;;0.52;0.52;;;-1.20;99.90;;;;;;5090559;28;20207;-67
2021/01/29 03:54:30;;;;;;;0.25;0.25;;;-1.30;99.90;;;;;;5090351;28;20648;-68
2021/01/29 03:57:14;;;;;;;2.17;2.08;;;-1.20;99.90;;;;;;5090072;28;20164;-68
2021/01/29 04:00:01;;;;;;;1.73;1.70;;;-1.20;99.90;;;;;;5090383;28;20196;-68
2021/01/29 04:02:30;;;;;;;1.65;1.55;;;-1.30;99.90;;;;;;5090101;28;20192;-68
2021/01/29 04:05:23;;;;;;;0.00;0.00;;;-1.30;99.90;;;;;;5088767;28;20223;-68
2021/01/29 04:07:51;;;;;;;0.20;0.20;;;-1.20;99.90;;;;;;5089725;28;20191;-68
2021/01/29 04:10:20;;;;;;;0.10;0.10;;;-1.30;99.90;;;;;;5090055;28;20271;-67
2021/01/29 04:12:58;;;;;;;0.13;0.13;;;-1.30;99.90;;;;;;5089132;28;20168;-69
2021/01/29 04:15:33;;;;;;;0.13;0.13;;;-1.30;99.90;;;;;;5089002;28;20174;-67
2021/01/29 04:18:18;;;;;;;1.65;0.75;;;-1.20;99.90;;;;;;5090178;28;20155;-69
2021/01/29 04:20:49;;;;;;;0.57;0.57;;;-1.10;99.90;;;;;;5089590;28;20230;-68
2021/01/29 04:23:31;;;;;;;0.30;0.30;;;-1.10;99.90;;;;;;5090237;28;20192;-69
2021/01/29 04:26:07;;;;;;;0.10;0.10;;;-1.10;99.90;;;;;;5088740;28;20179;-68
2021/01/29 04:28:38;;;;;;;0.15;0.15;;;-1.00;99.90;;;;;;5088219;28;20203;-69
2021/01/29 04:31:07;;;;;;;0.10;0.10;;;-0.80;99.90;;;;;;5089934;28;20516;-68
2021/01/29 04:33:40;;;;;;;0.35;0.35;;;-0.70;99.90;;;;;;5090023;28;20159;-68
2021/01/29 04:36:09;;;;;;;0.57;0.57;;;-0.60;99.90;;;;;;5089858;28;20166;-68
2021/01/29 04:38:34;;;;;;;0.70;0.70;;;-0.60;99.90;;;;;;5088424;28;20174;-68
2021/01/29 04:41:31;;;;;;;0.80;0.80;;;-0.70;99.90;;;;;;5089547;28;20691;-69
2021/01/29 04:44:04;;;;;;;0.30;0.30;;;-0.80;99.90;;;;;;5089649;28;20252;-68
2021/01/29 04:46:44;;;;;;;0.10;0.10;;;-0.90;99.90;;;;;;5087725;28;20164;-70
2021/01/29 04:49:43;;;;;;;0.47;0.47;;;-0.90;99.90;;;;;;5089212;28;20160;-67
2021/01/29 04:52:43;;;;;;;0.10;0.10;;;-0.90;99.90;;;;;;5089493;28;20170;-68
2021/01/29 04:55:24;;;;;;;1.95;1.60;;;-0.90;99.90;;;;;;5087933;28;20172;-68
2021/01/29 04:58:00;;;;;;;0.10;0.10;;;-0.70;99.90;;;;;;5087589;28;20270;-69
2021/01/29 05:00:54;;;;;;;1.75;1.20;;;-0.50;99.90;;;;;;5089070;28;20206;-68
2021/01/29 05:03:50;;;;;;;1.35;0.75;;;-0.60;99.90;;;;;;5088965;28;20255;-68
2021/01/29 05:06:53;;;;;;;0.28;0.28;;;-0.70;99.90;;;;;;5089128;28;20522;-68
2021/01/29 05:09:44;;;;;;;0.20;0.20;;;-0.40;99.90;;;;;;5089045;28;20186;-67
2021/01/29 05:12:29;;;;;;;0.20;0.20;;;-0.40;99.90;;;;;;5089105;28;20156;-68
2021/01/29 05:15:18;;;;;;;0.28;0.28;;;-0.40;99.90;;;;;;5088910;28;20184;-68
2021/01/29 05:18:20;;;;;;;0.60;0.60;;;-0.60;99.90;;;;;;5088470;28;20188;-67
2021/01/29 05:20:56;;;;;;;0.10;0.10;;;-0.70;99.90;;;;;;5086520;28;20226;-70
2021/01/29 05:23:40;;;;;;;0.70;0.70;;;-0.70;99.90;;;;;;5088180;28;20233;-68
2021/01/29 05:26:25;;;;;;;0.10;0.10;;;-0.60;99.90;;;;;;5087528;28;20231;-70
2021/01/29 05:29:09;;;;;;;1.58;1.27;;;-0.50;99.90;;;;;;5087208;28;20164;-67
2021/01/29 05:31:50;;;;;;;0.10;0.10;;;-0.50;99.90;;;;;;5088499;28;20196;-68
2021/01/29 05:34:31;;;;;;;0.38;0.38;;;-0.40;99.90;;;;;;5089037;28;20167;-69
2021/01/29 05:37:34;;;;;;;0.10;0.10;;;-0.40;99.90;;;;;;5088915;28;20160;-69
2021/01/29 05:40:09;;;;;;;0.95;0.95;;;-0.30;99.90;;;;;;5088459;28;20199;-68
2021/01/29 05:42:53;;;;;;;0.60;0.60;;;-0.30;99.90;;;;;;5087087;28;20230;-69
2021/01/29 05:45:49;;;;;;;0.10;0.10;;;-0.30;99.90;;;;;;5087363;28;20180;-69
2021/01/29 05:48:42;;;;;;;0.10;0.10;;;-0.30;99.90;;;;;;5088567;28;20159;-69
2021/01/29 05:51:28;;;;;;;0.30;0.30;;;-0.30;99.90;;;;;;5088082;28;20206;-69
2021/01/29 05:54:33;;;;;;;0.10;0.10;;;-0.40;99.90;;;;;;5088053;28;20184;-69
2021/01/29 05:57:18;;;;;;;0.20;0.20;;;-0.50;99.90;;;;;;5088333;28;20164;-67
2021/01/29 06:00:11;;;;;;;0.65;0.65;;;-0.40;99.90;;;;;;5086413;28;20191;-67
2021/01/29 06:02:58;;;;;;;0.10;0.10;;;-0.30;99.90;;;;;;5086918;28;20182;-69
2021/01/29 06:05:50;;;;;;;1.30;1.23;;;-0.20;99.90;;;;;;5088135;28;20236;-69
2021/01/29 06:08:49;;;;;;;0.55;0.55;;;-0.30;99.90;;;;;;5086778;28;20484;-67
2021/01/29 06:11:21;;;;;;;0.20;0.20;;;-0.30;99.90;;;;;;5088107;28;20195;-68
2021/01/29 06:14:15;;;;;;;0.10;0.10;;;-0.20;99.90;;;;;;5088229;28;20164;-68
2021/01/29 06:17:06;;;;;;;0.40;0.40;;;-0.10;99.90;;;;;;5088326;28;20160;-69
2021/01/29 06:19:59;;;;;;;0.40;0.40;;;-0.10;99.90;;;;;;5086567;28;20172;-69
2021/01/29 06:22:56;;;;;;;0.40;0.40;;;-0.10;99.90;;;;;;5086842;28;20262;-69
2021/01/29 06:25:34;;;;;;;0.20;0.20;;;-0.20;99.90;;;;;;5088304;28;20188;-68
2021/01/29 06:28:24;;;;;;;0.10;0.10;;;-0.10;99.90;;;;;;5088230;28;20178;-68
2021/01/29 06:31:09;;;;;;;0.20;0.20;;;0.00;99.90;;;;;;5087979;28;20199;-69
2021/01/29 06:33:56;;;;;;;0.30;0.30;;;0.10;99.90;;;;;;5086605;28;20255;-68
2021/01/29 06:36:31;;;;;;;0.25;0.25;;;0.00;99.90;;;;;;5087903;28;20180;-69
2021/01/29 06:39:05;;;;;;;0.10;0.10;;;0.00;99.90;;;;;;5086446;28;20171;-68
2021/01/29 06:41:51;;;;;;;1.10;1.10;;;0.00;99.90;;;;;;5086276;28;20219;-68
2021/01/29 06:45:03;;;;;;;0.10;0.10;;;0.10;99.90;;;;;;5087443;28;20195;-67
2021/01/29 06:48:16;;;;;;;1.45;1.38;;;0.10;99.90;;;;;;5087545;28;20163;-67
2021/01/29 06:51:07;;;;;;;0.32;0.32;;;0.20;99.90;;;;;;5082145;28;20267;-68
2021/01/29 06:54:11;;;;;;;0.35;0.35;;;0.40;99.90;;;;;;5069718;28;20180;-68
2021/01/29 06:56:51;;;;;;;0.00;0.00;;;0.40;99.90;;;;;;5087636;28;20262;-68
2021/01/29 06:59:38;;;;;;;0.70;0.70;;;0.60;99.90;;;;;;5074179;28;20228;-68
2021/01/29 07:02:32;;;;;;;0.57;0.57;;;0.70;99.90;;;;;;5065902;28;20165;-68
2021/01/29 07:05:09;;;;;;;0.30;0.30;;;0.80;99.90;;;;;;5067552;28;20184;-68
2021/01/29 07:08:23;;;;;;;1.20;1.20;;;0.80;99.90;;;;;;5077408;28;20183;-68
2021/01/29 07:11:13;;;;;;;0.93;0.93;;;0.90;99.90;;;;;;5088689;28;20270;-68
2021/01/29 07:14:02;;;;;;;0.45;0.45;;;0.90;99.90;;;;;;5091066;28;20180;-69
2021/01/29 07:16:49;;;;;;;0.15;0.15;;;0.90;99.90;;;;;;5074757;28;20204;-68
2021/01/29 07:19:30;;;;;;;0.10;0.10;;;1.00;99.90;;;;;;5070845;28;20220;-68
2021/01/29 07:22:14;;;;;;;0.30;0.30;;;1.10;99.90;;;;;;5068395;28;20263;-69
2021/01/29 07:25:07;;;;;;;0.20;0.20;;;1.10;99.90;;;;;;5069392;28;20227;-68
2021/01/29 07:27:43;;;;;;;0.10;0.10;;;1.10;99.90;;;;;;5070879;28;20160;-69
2021/01/29 07:30:36;;;;;;;0.35;0.35;;;1.20;99.90;;;;;;5070897;28;20243;-69
2021/01/29 07:33:22;;;;;;;0.10;0.10;;;1.10;99.90;;;;;;5070669;28;20161;-68
2021/01/29 07:36:21;;;;;;;0.22;0.22;;;1.20;99.90;;;;;;5070639;28;20306;-68
2021/01/29 07:39:18;;;;;;;0.98;0.98;;;1.20;99.90;;;;;;5089476;28;20164;-69
2021/01/29 07:42:18;;;;;;;0.30;0.30;;;1.30;99.90;;;;;;5089129;28;20227;-69
2021/01/29 07:44:43;;;;;;;0.90;0.90;;;1.40;99.90;;;;;;5086641;28;20223;-69
2021/01/29 07:47:41;;;;;;;0.80;0.80;;;1.40;99.90;;;;;;5089808;28;20157;-68
2021/01/29 07:50:28;;;;;;;0.13;0.13;;;1.40;99.90;;;;;;5081325;28;20563;-68
2021/01/29 07:53:20;;;;;;;1.23;1.13;;;1.40;99.90;;;;;;5073639;28;20167;-68
2021/01/29 07:56:23;;;;;;;0.05;0.05;;;1.50;99.90;;;;;;5084963;28;20199;-69
2021/01/29 07:59:01;;;;;;;1.75;1.35;;;1.50;99.90;;;;;;5077924;28;20176;-68
2021/01/29 08:01:43;;;;;;;0.10;0.10;;;1.60;99.90;;;;;;5070666;28;20194;-69
2021/01/29 08:04:41;;;;;;;0.25;0.25;;;1.60;99.90;;;;;;5070433;28;20188;-68
2021/01/29 08:07:17;;;;;;;0.10;0.10;;;1.40;99.90;;;;;;5068759;28;20173;-68
2021/01/29 08:10:26;;;;;;;0.32;0.32;;;1.50;99.90;;;;;;5070065;28;20168;-68
2021/01/29 08:13:05;;;;;;;0.15;0.15;;;1.50;99.90;;;;;;5072133;28;20187;-68
2021/01/29 08:16:12;;;;;;;0.20;0.20;;;1.70;99.90;;;;;;5090295;28;20693;-68
2021/01/29 08:19:06;;;;;;;0.17;0.17;;;1.50;99.90;;;;;;5090669;28;20214;-67
2021/01/29 08:22:09;;;;;;;1.55;1.45;;;1.60;99.90;;;;;;5089503;28;20164;-67
2021/01/29 08:24:43;;;;;;;0.93;0.93;;;1.80;99.90;;;;;;5090157;28;20302;-67
2021/01/29 08:27:33;;;;;;;0.40;0.40;;;1.90;99.90;;;;;;5088791;28;20171;-67
2021/01/29 08:30:18;;;;;;;0.10;0.10;;;1.90;99.90;;;;;;5089849;28;20152;-67
2021/01/29 08:32:52;;;;;;;0.22;0.22;;;2.10;99.90;;;;;;5088550;28;20584;-68
2021/01/29 08:35:45;;;;;;;2.30;1.20;;;2.20;99.90;;;;;;5080960;28;20214;-67
2021/01/29 08:38:14;;;;;;;0.35;0.35;;;2.30;99.90;;;;;;5083612;28;20562;-68
2021/01/29 08:41:09;;;;;;;2.40;2.25;;;2.30;99.90;;;;;;5069476;28;20217;-68
2021/01/29 08:43:42;;;;;;;0.68;0.68;;;2.50;99.90;;;;;;5069377;28;20220;-68
2021/01/29 08:46:30;;;;;;;1.25;1.15;;;2.50;99.90;;;;;;5068298;28;20233;-67
2021/01/29 08:49:07;;;;;;;2.20;1.48;;;2.60;99.90;;;;;;5074939;28;20176;-68
2021/01/29 08:51:59;;;;;;;0.80;0.80;;;2.70;99.90;;;;;;5080174;28;20213;-68
2021/01/29 08:54:40;;;;;;;0.45;0.45;;;2.60;99.90;;;;;;5076578;28;20180;-68
2021/01/29 08:57:20;;;;;;;0.43;0.43;;;2.60;99.90;;;;;;5089521;28;20162;-68
2021/01/29 08:59:48;;;;;;;0.25;0.25;;;2.30;99.90;;;;;;5089126;28;20170;-69
2021/01/29 09:02:35;;;;;;;0.30;0.30;;;2.40;99.90;;;;;;5089145;28;20152;-69
2021/01/29 09:05:09;;;;;;;0.50;0.50;;;2.30;99.90;;;;;;5089135;28;20195;-68
2021/01/29 09:07:41;;;;;;;1.10;1.00;;;2.40;99.90;;;;;;5087606;28;20168;-69
2021/01/29 09:10:14;;;;;;;1.05;1.05;;;2.20;99.90;;;;;;5089237;28;20152;-68
2021/01/29 09:12:43;;;;;;;1.25;1.25;;;2.30;99.90;;;;;;5088816;28;20156;-68
2021/01/29 09:15:24;;;;;;;0.47;0.47;;;2.20;99.90;;;;;;5089176;28;20291;-67
2021/01/29 09:18:10;;;;;;;1.33;1.25;;;2.30;99.90;;;;;;5088813;28;20163;-67
2021/01/29 09:20:48;;;;;;;1.45;1.45;;;2.20;99.90;;;;;;5088316;28;20182;-68
2021/01/29 09:23:32;;;;;;;0.30;0.30;;;2.20;99.90;;;;;;5085802;28;20255;-68
2021/01/29 09:26:20;;;;;;;1.30;1.08;;;2.30;99.90;;;;;;5067877;28;20207;-68
2021/01/29 09:28:56;;;;;;;0.75;0.75;;;2.40;99.90;;;;;;5072866;28;20174;-69
2021/01/29 09:31:30;;;;;;;0.50;0.50;;;2.40;99.90;;;;;;5087763;28;20152;-67
2021/01/29 09:34:18;;;;;;;0.70;0.70;;;2.50;99.90;;;;;;5088197;28;20162;-68
2021/01/29 09:36:55;;;;;;;2.63;1.23;;;2.50;99.90;;;;;;5088571;28;20168;-67
2021/01/29 09:39:34;;;;;;;0.15;0.15;;;2.60;99.90;;;;;;5088340;28;20167;-68
2021/01/29 09:42:04;;;;;;;1.13;1.02;;;2.70;99.90;;;;;;5086194;28;20232;-67
2021/01/29 09:44:39;;;;;;;0.30;0.30;;;2.70;99.90;;;;;;5086804;28;20188;-67
2021/01/29 09:47:08;;;;;;;0.40;0.40;;;2.80;99.90;;;;;;5088075;28;20715;-67
2021/01/29 09:49:36;;;;;;;0.52;0.52;;;2.80;99.90;;;;;;5084924;28;20178;-67
2021/01/29 09:52:09;;;;;;;2.55;1.45;;;2.90;99.90;;;;;;5066903;28;20214;-67
2021/01/29 09:54:38;;;;;;;2.17;1.90;;;2.80;99.90;;;;;;5067640;28;20176;-68
2021/01/29 09:57:11;;;;;;;1.95;1.85;;;2.80;99.90;;;;;;5082986;28;20179;-67
2021/01/29 10:00:20;;;;;;;0.75;0.75;;;2.90;99.90;;;;;;5088262;28;20159;-67
2021/01/29 10:03:01;;;;;;;0.73;0.73;;;3.00;99.90;;;;;;5085820;28;20282;-67
2021/01/29 10:05:30;;;;;;;0.20;0.20;;;3.00;99.90;;;;;;5086131;28;20180;-67
2021/01/29 10:08:22;;;;;;;1.60;1.50;;;3.20;99.90;;;;;;5086124;28;20218;-67
2021/01/29 10:10:57;;;;;;;0.35;0.35;;;3.40;99.90;;;;;;5058895;28;20207;-67
2021/01/29 10:13:40;;;;;;;0.20;0.20;;;3.50;99.90;;;;;;5053750;28;20183;-68
2021/01/29 10:16:20;;;;;;;1.95;1.85;;;3.90;99.90;;;;;;5086174;28;20175;-68
2021/01/29 10:18:55;;;;;;;6.50;0.90;;;4.10;99.90;;;;;;5072166;28;20207;-69
2021/01/29 10:21:49;;;;;;;1.40;1.23;;;4.20;99.90;;;;;;5065817;28;20168;-69
2021/01/29 10:24:24;;;;;;;0.52;0.52;;;4.40;99.90;;;;;;5054010;28;20218;-68
2021/01/29 10:27:16;;;;;;;0.38;0.38;;;4.70;99.90;;;;;;5075485;28;20190;-67
2021/01/29 10:29:55;;;;;;;0.32;0.32;;;4.70;99.90;;;;;;5028749;28;20241;-66
2021/01/29 10:32:29;;;;;;;0.60;0.60;;;4.60;99.90;;;;;;5069121;28;20598;-66
2021/01/29 10:35:02;;;;;;;0.13;0.13;;;4.80;99.90;;;;;;5086044;28;20168;-66
2021/01/29 10:37:36;;;;;;;0.43;0.43;;;4.90;99.90;;;;;;5067123;28;20208;-67
2021/01/29 10:40:22;;;;;;;0.98;0.98;;;4.80;99.90;;;;;;5067952;28;20157;-67
2021/01/29 10:43:15;;;;;;;0.55;0.55;;;4.80;99.90;;;;;;5066930;28;20224;-67
2021/01/29 10:46:23;;;;;;;1.50;1.40;;;4.60;99.90;;;;;;5089528;28;20192;-68
2021/01/29 10:49:13;;;;;;;1.50;1.40;;;4.40;99.90;;;;;;5090068;28;20202;-67
2021/01/29 10:52:17;;;;;;;1.98;1.88;;;4.40;99.90;;;;;;5070274;28;20198;-67
2021/01/29 10:54:44;;;;;;;1.35;1.17;;;4.30;99.90;;;;;;5089322;28;20207;-69
2021/01/29 10:57:25;;;;;;;0.82;0.82;;;4.30;99.90;;;;;;5089149;28;20234;-67
2021/01/29 11:00:07;;;;;;;1.15;1.05;;;4.50;99.90;;;;;;5072876;28;20187;-67
2021/01/29 11:02:40;;;;;;;0.65;0.65;;;4.60;99.90;;;;;;5089495;28;20216;-69
2021/01/29 11:05:23;;;;;;;1.23;0.77;;;4.60;99.90;;;;;;5089433;28;20565;-68
2021/01/29 11:07:52;;;;;;;2.45;1.25;;;4.60;99.90;;;;;;5089048;28;20196;-68
2021/01/29 11:10:33;;;;;;;1.98;1.88;;;4.70;99.90;;;;;;5089166;28;20180;-68
2021/01/29 11:13:06;;;;;;;0.82;0.60;;;4.70;99.90;;;;;;5089005;28;20168;-68
2021/01/29 11:15:54;;;;;;;0.80;0.80;;;4.70;99.90;;;;;;5089249;28;20722;-68
2021/01/29 11:18:27;;;;;;;0.40;0.40;;;4.60;99.90;;;;;;5088732;28;20240;-68
2021/01/29 11:21:03;;;;;;;0.22;0.22;;;4.80;99.90;;;;;;5089422;28;20152;-69
2021/01/29 11:23:54;;;;;;;2.10;2.00;;;5.00;99.90;;;;;;5088873;28;20258;-66
2021/01/29 11:26:38;;;;;;;0.10;0.10;;;5.10;99.90;;;;;;5088534;28;20276;-67
2021/01/29 11:29:31;;;;;;;0.70;0.70;;;5.10;99.90;;;;;;5088083;28;20160;-67
2021/01/29 11:32:25;;;;;;;0.63;0.63;;;5.00;99.90;;;;;;5070863;28;20160;-67
2021/01/29 11:34:59;;;;;;;1.58;1.48;;;5.20;99.90;;;;;;5069466;28;20176;-68
2021/01/29 11:37:30;;;;;;;1.85;1.75;;;5.40;99.90;;;;;;5070736;28;20561;-67
2021/01/29 11:40:31;;;;;;;0.20;0.20;;;5.50;99.90;;;;;;5070918;28;20161;-67
2021/01/29 11:43:28;;;;;;;0.95;0.95;;;5.60;99.90;;;;;;5068773;28;20244;-69
2021/01/29 11:46:13;;;;;;;1.23;1.23;;;5.70;99.90;;;;;;5069384;28;20193;-67
2021/01/29 11:48:57;;;;;;;0.20;0.20;;;5.80;99.90;;;;;;5070682;28;20200;-67
2021/01/29 11:51:38;;;;;;;0.40;0.38;;;5.90;99.90;;;;;;5081902;28;20215;-68
2021/01/29 11:54:16;;;;;;;0.60;0.60;;;6.00;99.90;;;;;;5079960;28;20175;-67
2021/01/29 11:56:53;;;;;;;0.95;0.95;;;6.20;99.90;;;;;;5087588;28;20182;-67
2021/01/29 11:59:51;;;;;;;0.85;0.85;;;6.40;99.90;;;;;;5090458;28;20187;-67
2021/01/29 12:02:20;;;;;;;0.20;0.20;;;6.50;99.90;;;;;;5090385;28;20167;-67
2021/01/29 12:05:05;;;;;;;3.60;3.33;;;6.70;99.90;;;;;;5090190;28;20219;-68
2021/01/29 12:07:55;;;;;;;1.13;1.13;;;6.70;99.90;;;;;;5088628;28;20276;-68
2021/01/29 12:10:27;;;;;;;0.95;0.95;;;6.80;99.90;;;;;;5088908;28;20183;-68
2021/01/29 12:13:00;;;;;;;1.20;1.20;;;6.60;99.90;;;;;;5090175;28;20164;-68
2021/01/29 12:15:48;;;;;;;0.52;0.52;;;6.50;99.90;;;;;;5089192;28;20152;-69
2021/01/29 12:18:17;;;;;;;0.98;0.98;;;6.20;99.90;;;;;;5077261;28;20196;-68
2021/01/29 12:20:44;;;;;;;0.95;0.95;;;6.10;99.90;;;;;;5070149;28;20195;-69
2021/01/29 12:23:38;;;;;;;0.80;0.80;;;5.90;99.90;;;;;;5069968;28;20156;-67
2021/01/29 12:26:32;;;;;;;1.50;1.42;;;5.80;99.90;;;;;;5069983;28;20188;-66
2021/01/29 12:29:04;;;;;;;0.30;0.30;;;5.60;99.90;;;;;;5069841;28;20197;-68
2021/01/29 12:31:36;;;;;;;0.30;0.25;;;5.50;99.90;;;;;;5069351;28;20157;-68
2021/01/29 12:34:24;;;;;;;3.30;3.10;;;5.50;99.90;;;;;;5069488;28;20183;-68
2021/01/29 12:37:13;;;;;;;1.42;1.38;;;5.50;99.90;;;;;;5068196;28;20180;-68
2021/01/29 12:39:53;;;;;;;1.13;1.13;;;5.50;99.90;;;;;;5068823;28;20228;-68
2021/01/29 12:42:41;;;;;;;0.10;0.10;;;5.70;99.90;;;;;;5069553;28;20231;-68
2021/01/29 12:45:18;;;;;;;0.52;0.50;;;5.80;99.90;;;;;;5068462;28;20208;-68
2021/01/29 12:47:58;;;;;;;0.30;0.30;;;5.70;99.90;;;;;;5069324;28;20266;-66
2021/01/29 12:50:45;;;;;;;0.68;0.52;;;5.80;99.90;;;;;;5076962;28;20613;-67
2021/01/29 12:53:20;;;;;;;0.45;0.45;;;5.90;99.90;;;;;;5089288;28;20156;-67
2021/01/29 12:56:06;;;;;;;1.02;1.02;;;5.90;99.90;;;;;;5087893;28;20195;-67
2021/01/29 12:58:40;;;;;;;1.23;1.13;;;6.20;99.90;;;;;;5089382;28;20156;-67
2021/01/29 13:01:09;;;;;;;6.40;1.75;;;6.40;99.90;;;;;;5089212;28;20167;-68
2021/01/29 13:03:58;;;;;;;1.30;1.20;;;6.60;99.90;;;;;;5089251;28;20195;-67
2021/01/29 13:06:36;;;;;;;0.75;0.75;;;6.70;99.90;;;;;;5089326;28;20184;-68
2021/01/29 13:09:23;;;;;;;6.60;2.28;;;6.80;99.90;;;;;;5088765;28;20148;-67
2021/01/29 13:12:10;;;;;;;0.95;0.93;;;6.90;99.90;;;;;;5089170;28;20216;-67
2021/01/29 13:14:51;;;;;;;0.80;0.80;;;6.70;99.90;;;;;;5088785;28;20558;-67
2021/01/29 13:17:29;;;;;;;1.10;1.08;;;6.70;99.90;;;;;;5089189;28;20164;-68
2021/01/29 13:20:04;;;;;;;0.30;0.30;;;6.70;99.90;;;;;;5087632;28;20259;-69
2021/01/29 13:22:39;;;;;;;0.73;0.63;;;6.40;99.90;;;;;;5088866;28;20167;-68
2021/01/29 13:25:10;;;;;;;0.98;0.95;;;6.20;99.90;;;;;;5088673;28;20207;-68
2021/01/29 13:27:52;;;;;;;2.65;1.65;;;6.00;99.90;;;;;;5087404;28;20156;-67
2021/01/29 13:30:26;;;;;;;0.08;0.08;;;6.10;99.90;;;;;;5088427;28;20518;-67
2021/01/29 13:32:53;;;;;;;0.70;0.70;;;6.20;99.90;;;;;;5086866;28;20221;-67
2021/01/29 13:35:32;;;;;;;0.65;0.65;;;6.20;99.90;;;;;;5088800;28;20683;-68
2021/01/29 13:38:28;;;;;;;1.92;1.70;;;6.30;99.90;;;;;;5088439;28;20156;-67
2021/01/29 13:41:06;;;;;;;0.30;0.30;;;6.30;99.90;;;;;;5068179;28;20188;-69
2021/01/29 13:43:32;;;;;;;0.77;0.77;;;6.40;99.90;;;;;;5068363;28;20696;-68
2021/01/29 13:46:08;;;;;;;2.75;2.08;;;6.40;99.90;;;;;;5067091;28;20173;-68
2021/01/29 13:48:36;;;;;;;0.60;0.47;;;6.30;99.90;;;;;;5067964;28;20254;-67
2021/01/29 13:51:31;;;;;;;1.40;1.30;;;6.20;99.90;;;;;;5073420;28;20957;-66
2021/01/29 13:53:59;;;;;;;1.40;1.30;;;6.20;99.90;;;;;;5074379;28;20189;-67
2021/01/29 13:56:48;;;;;;;0.50;0.50;;;6.10;99.90;;;;;;5087881;28;20164;-66
2021/01/29 13:59:17;;;;;;;0.57;0.57;;;6.00;99.90;;;;;;5086385;28;20191;-67
2021/01/29 14:01:49;;;;;;;0.10;0.10;;;6.00;99.90;;;;;;5086588;28;20186;-66
2021/01/29 14:04:24;;;;;;;0.57;0.57;;;6.00;99.90;;;;;;5088207;28;20184;-69